Time;durP1;ratioP1;P1;durP2;ratioP2;P2;SDS_P1;SDS_P2;PMS_P1;PMS_P2;Temp;Humidity;BMP_temperature;BMP_pressure;BME280_temperature;BME280_humidity;BME280_pressure;Samples;Min_cycle;Max_cycle;Signal;HPM_P1;HPM_P2
2023/05/26 00:01:07;;;;;;;;;9.50;9.25;;;;;;;;4975188;28;45405;-71
2023/05/26 00:03:34;;;;;;;;;9.50;8.75;;;;;;;;4975013;28;47126;-71
2023/05/26 00:05:59;;;;;;;;;7.50;7.50;;;;;;;;4974772;28;45376;-71
2023/05/26 00:08:25;;;;;;;;;8.00;8.00;;;;;;;;4974705;28;45478;-71
2023/05/26 00:10:51;;;;;;;;;7.25;6.75;;;;;;;;4975389;28;45541;-70
2023/05/26 00:13:16;;;;;;;;;6.50;6.50;;;;;;;;4975288;28;45576;-71
2023/05/26 00:15:41;;;;;;;;;8.25;7.25;;;;;;;;4975483;28;45361;-71
2023/05/26 00:18:07;;;;;;;;;9.25;8.50;;;;;;;;4975550;28;45448;-71
2023/05/26 00:20:32;;;;;;;;;7.75;7.75;;;;;;;;4975484;28;45286;-71
2023/05/26 00:22:58;;;;;;;;;6.75;6.00;;;;;;;;4974745;28;46621;-70
2023/05/26 00:25:23;;;;;;;;;9.25;9.25;;;;;;;;4975194;28;45318;-71
2023/05/26 00:27:49;;;;;;;;;11.00;10.00;;;;;;;;4975530;28;45256;-71
2023/05/26 00:30:14;;;;;;;;;8.00;8.00;;;;;;;;4975277;28;45464;-71
2023/05/26 00:32:39;;;;;;;;;9.25;9.25;;;;;;;;4973830;28;47161;-71
2023/05/26 00:35:05;;;;;;;;;9.25;7.75;;;;;;;;4975224;28;45207;-71
2023/05/26 00:37:30;;;;;;;;;11.50;11.50;;;;;;;;4974947;28;45334;-71
2023/05/26 00:39:56;;;;;;;;;10.25;10.00;;;;;;;;4976822;28;45508;-71
2023/05/26 00:42:21;;;;;;;;;9.50;8.50;;;;;;;;4978519;28;47164;-72
2023/05/26 00:44:46;;;;;;;;;9.25;9.00;;;;;;;;4978792;28;45310;-71
2023/05/26 00:47:11;;;;;;;;;9.25;7.75;;;;;;;;4978375;28;45341;-72
2023/05/26 00:49:36;;;;;;;;;9.75;9.25;;;;;;;;4976414;28;45312;-71
2023/05/26 00:52:02;;;;;;;;;8.75;8.75;;;;;;;;4977616;28;46352;-71
2023/05/26 00:54:27;;;;;;;;;13.50;10.00;;;;;;;;4977608;28;45494;-72
2023/05/26 00:56:54;;;;;;;;;11.25;10.00;;;;;;;;4978613;28;45399;-71
2023/05/26 00:59:20;;;;;;;;;11.75;11.00;;;;;;;;4978511;28;45516;-72
2023/05/26 01:01:45;;;;;;;;;13.50;11.50;;;;;;;;4977927;28;46241;-71
2023/05/26 01:04:11;;;;;;;;;15.00;12.25;;;;;;;;4978259;28;45430;-71
2023/05/26 01:06:36;;;;;;;;;10.00;10.00;;;;;;;;4978055;28;45479;-71
2023/05/26 01:09:02;;;;;;;;;13.50;12.25;;;;;;;;4976971;28;45562;-71
2023/05/26 01:11:36;;;;;;;;;13.00;10.75;;;;;;;;4976950;28;46123;-71
2023/05/26 01:14:11;;;;;;;;;12.50;11.00;;;;;;;;4959478;28;45394;-71
2023/05/26 01:16:39;;;;;;;;;7.50;7.50;;;;;;;;4958720;28;45439;-71
2023/05/26 01:19:06;;;;;;;;;14.00;11.50;;;;;;;;4958252;28;45407;-70
2023/05/26 01:21:33;;;;;;;;;16.75;13.75;;;;;;;;4958001;28;46176;-71
2023/05/26 01:24:12;;;;;;;;;13.50;11.25;;;;;;;;4957906;28;45383;-71
2023/05/26 01:26:40;;;;;;;;;9.00;9.00;;;;;;;;4958415;28;45405;-71
2023/05/26 01:29:10;;;;;;;;;11.25;9.75;;;;;;;;4958064;28;45774;-71
2023/05/26 01:31:38;;;;;;;;;15.25;13.75;;;;;;;;4957541;28;47266;-71
2023/05/26 01:34:03;;;;;;;;;13.75;13.50;;;;;;;;4957893;28;45283;-71
2023/05/26 01:36:29;;;;;;;;;13.00;13.00;;;;;;;;4958439;28;45330;-72
2023/05/26 01:38:54;;;;;;;;;16.25;13.00;;;;;;;;4966269;28;45326;-71
2023/05/26 01:41:22;;;;;;;;;13.00;12.50;;;;;;;;4977140;28;46314;-73
2023/05/26 01:43:51;;;;;;;;;16.50;13.25;;;;;;;;4977367;28;45488;-71
2023/05/26 01:46:30;;;;;;;;;13.00;12.75;;;;;;;;4977550;28;45390;-71
2023/05/26 01:48:57;;;;;;;;;11.50;11.50;;;;;;;;4968395;28;45313;-71
2023/05/26 01:51:23;;;;;;;;;0.00;0.00;;;;;;;;4976794;28;47250;-71
2023/05/26 01:53:51;;;;;;;;;16.00;11.50;;;;;;;;4976982;28;45513;-72
2023/05/26 01:56:18;;;;;;;;;14.25;13.25;;;;;;;;4975995;28;45485;-71
2023/05/26 01:58:45;;;;;;;;;13.75;10.00;;;;;;;;4975991;28;45372;-71
2023/05/26 02:01:11;;;;;;;;;11.00;9.50;;;;;;;;4977105;28;45769;-72
2023/05/26 02:03:36;;;;;;;;;16.75;14.25;;;;;;;;4977048;28;45326;-73
2023/05/26 02:06:01;;;;;;;;;16.50;12.25;;;;;;;;4976990;28;45298;-72
2023/05/26 02:08:27;;;;;;;;;17.25;12.25;;;;;;;;4977236;28;45442;-73
2023/05/26 02:10:52;;;;;;;;;12.75;12.50;;;;;;;;4977321;28;45467;-72
2023/05/26 02:13:17;;;;;;;;;12.75;9.25;;;;;;;;4977179;28;45402;-72
2023/05/26 02:15:42;;;;;;;;;12.75;10.00;;;;;;;;4975516;28;45369;-72
2023/05/26 02:18:07;;;;;;;;;11.50;8.50;;;;;;;;4956410;28;45405;-72
2023/05/26 02:20:33;;;;;;;;;12.25;11.50;;;;;;;;4956249;28;47363;-72
2023/05/26 02:22:58;;;;;;;;;13.50;12.25;;;;;;;;4957114;28;45469;-71
2023/05/26 02:25:23;;;;;;;;;13.00;10.50;;;;;;;;4957561;28;45355;-72
2023/05/26 02:27:48;;;;;;;;;10.75;10.25;;;;;;;;4957689;28;45480;-72
2023/05/26 02:30:13;;;;;;;;;10.00;9.00;;;;;;;;4955872;28;47166;-72
2023/05/26 02:32:39;;;;;;;;;10.75;8.75;;;;;;;;4954884;28;45552;-71
2023/05/26 02:35:04;;;;;;;;;11.25;9.50;;;;;;;;4957085;28;45455;-71
2023/05/26 02:37:30;;;;;;;;;11.00;11.00;;;;;;;;4956105;28;45626;-72
2023/05/26 02:39:55;;;;;;;;;8.00;8.00;;;;;;;;4957092;28;47259;-71
2023/05/26 02:42:20;;;;;;;;;8.25;7.50;;;;;;;;4957142;28;45456;-71
2023/05/26 02:44:46;;;;;;;;;8.50;6.50;;;;;;;;4957426;28;45382;-71
2023/05/26 02:47:11;;;;;;;;;11.00;9.00;;;;;;;;4957092;28;45437;-71
2023/05/26 02:49:36;;;;;;;;;8.25;8.00;;;;;;;;4963567;28;46026;-72
2023/05/26 02:52:01;;;;;;;;;8.50;8.25;;;;;;;;4996224;28;45417;-71
2023/05/26 02:54:27;;;;;;;;;11.25;9.00;;;;;;;;4996556;28;45452;-71
2023/05/26 02:56:52;;;;;;;;;8.75;8.75;;;;;;;;4979899;28;45342;-71
2023/05/26 02:59:17;;;;;;;;;11.75;8.50;;;;;;;;4975985;28;47566;-72
2023/05/26 03:01:43;;;;;;;;;7.75;6.50;;;;;;;;4975484;28;45283;-72
2023/05/26 03:04:08;;;;;;;;;11.00;10.00;;;;;;;;4976517;28;45393;-72
2023/05/26 03:06:34;;;;;;;;;11.25;6.25;;;;;;;;4976410;28;45536;-71
2023/05/26 03:08:59;;;;;;;;;7.00;7.00;;;;;;;;4975920;28;46558;-72
2023/05/26 03:11:25;;;;;;;;;10.50;8.75;;;;;;;;4976041;28;45282;-72
2023/05/26 03:13:50;;;;;;;;;8.75;7.75;;;;;;;;4976310;28;45247;-72
2023/05/26 03:16:15;;;;;;;;;9.50;8.00;;;;;;;;4975620;28;45275;-72
2023/05/26 03:18:40;;;;;;;;;8.00;8.00;;;;;;;;4975900;28;47398;-72
2023/05/26 03:21:06;;;;;;;;;6.50;6.50;;;;;;;;4975951;28;45313;-74
2023/05/26 03:23:31;;;;;;;;;7.50;6.00;;;;;;;;4976264;28;45334;-72
2023/05/26 03:25:56;;;;;;;;;11.00;7.00;;;;;;;;4976330;28;45437;-72
2023/05/26 03:28:22;;;;;;;;;10.00;8.50;;;;;;;;4975926;28;46143;-72
2023/05/26 03:30:47;;;;;;;;;8.00;6.50;;;;;;;;4975444;28;45314;-72
2023/05/26 03:33:12;;;;;;;;;11.25;9.00;;;;;;;;4976347;28;45313;-71
2023/05/26 03:35:37;;;;;;;;;13.50;10.00;;;;;;;;4974866;28;45334;-72
2023/05/26 03:38:02;;;;;;;;;7.25;7.25;;;;;;;;4975736;28;45573;-71
2023/05/26 03:40:28;;;;;;;;;9.00;6.75;;;;;;;;4975829;28;45378;-72
2023/05/26 03:42:53;;;;;;;;;8.50;7.50;;;;;;;;4975807;28;45585;-72
2023/05/26 03:45:18;;;;;;;;;8.25;6.75;;;;;;;;4975501;28;45498;-71
2023/05/26 03:47:43;;;;;;;;;10.75;9.00;;;;;;;;4974143;28;48428;-71
2023/05/26 03:50:09;;;;;;;;;9.00;9.00;;;;;;;;4983225;28;45388;-72
2023/05/26 03:52:35;;;;;;;;;13.00;11.00;;;;;;;;4995581;28;45443;-72
2023/05/26 03:55:00;;;;;;;;;9.75;8.50;;;;;;;;4995449;28;45424;-71
2023/05/26 03:57:26;;;;;;;;;10.50;8.00;;;;;;;;4973652;28;46153;-73
2023/05/26 03:59:51;;;;;;;;;12.00;7.25;;;;;;;;4975296;28;45389;-72
2023/05/26 04:02:16;;;;;;;;;8.75;8.75;;;;;;;;4974351;28;45410;-72
2023/05/26 04:04:41;;;;;;;;;9.50;8.75;;;;;;;;4975766;28;45481;-71
2023/05/26 04:07:07;;;;;;;;;9.75;9.00;;;;;;;;4975559;28;46472;-72
2023/05/26 04:09:32;;;;;;;;;7.50;6.00;;;;;;;;4975532;28;45458;-73
2023/05/26 04:11:57;;;;;;;;;8.75;8.75;;;;;;;;4975410;28;45417;-71
2023/05/26 04:14:23;;;;;;;;;9.75;7.75;;;;;;;;4975457;28;45539;-71
2023/05/26 04:16:48;;;;;;;;;8.00;5.75;;;;;;;;4974623;28;45727;-72
2023/05/26 04:19:13;;;;;;;;;8.00;8.00;;;;;;;;4975308;28;45482;-71
2023/05/26 04:21:39;;;;;;;;;8.50;6.75;;;;;;;;4975497;28;45382;-71
2023/05/26 04:24:04;;;;;;;;;8.50;8.50;;;;;;;;4975190;28;45462;-71
2023/05/26 04:26:33;;;;;;;;;8.25;7.25;;;;;;;;4975291;28;45802;-72
2023/05/26 04:28:59;;;;;;;;;7.00;7.00;;;;;;;;4974827;28;45402;-71
2023/05/26 04:31:24;;;;;;;;;9.25;7.25;;;;;;;;4975281;28;45473;-72
2023/05/26 04:33:50;;;;;;;;;10.00;8.00;;;;;;;;4975046;28;45428;-71
2023/05/26 04:36:16;;;;;;;;;8.50;8.50;;;;;;;;4975130;28;46499;-71
2023/05/26 04:38:42;;;;;;;;;9.75;7.75;;;;;;;;4974078;28;45416;-72
2023/05/26 04:41:07;;;;;;;;;9.00;7.25;;;;;;;;4975080;28;45654;-71
2023/05/26 04:43:34;;;;;;;;;13.00;10.50;;;;;;;;4974935;28;45330;-72
2023/05/26 04:46:01;;;;;;;;;8.25;8.25;;;;;;;;4974503;28;46176;-72
2023/05/26 04:48:26;;;;;;;;;8.25;5.75;;;;;;;;4974792;28;45301;-72
2023/05/26 04:50:53;;;;;;;;;8.75;7.75;;;;;;;;4988153;28;45736;-71
2023/05/26 04:53:18;;;;;;;;;8.00;8.00;;;;;;;;4994702;28;45412;-72
2023/05/26 04:55:44;;;;;;;;;9.25;8.75;;;;;;;;4994471;28;45377;-72
2023/05/26 04:58:09;;;;;;;;;9.75;9.00;;;;;;;;4963318;28;46153;-72
2023/05/26 05:00:36;;;;;;;;;10.00;9.00;;;;;;;;4955619;28;45469;-72
2023/05/26 05:03:02;;;;;;;;;7.50;6.75;;;;;;;;4955630;28;45440;-72
2023/05/26 05:05:27;;;;;;;;;9.00;9.00;;;;;;;;4955185;28;45965;-73
2023/05/26 05:07:52;;;;;;;;;8.25;7.75;;;;;;;;4954965;28;45388;-71
2023/05/26 05:10:17;;;;;;;;;8.00;7.00;;;;;;;;4954145;28;45456;-72
2023/05/26 05:12:43;;;;;;;;;6.25;6.25;;;;;;;;4955219;28;45373;-72
2023/05/26 05:15:08;;;;;;;;;10.50;7.50;;;;;;;;4955232;28;46843;-72
2023/05/26 05:17:33;;;;;;;;;11.75;8.25;;;;;;;;4954921;28;45369;-71
2023/05/26 05:19:59;;;;;;;;;7.50;7.50;;;;;;;;4954992;28;45338;-71
2023/05/26 05:22:25;;;;;;;;;8.00;7.00;;;;;;;;4954738;28;45350;-71
2023/05/26 05:24:50;;;;;;;;;12.25;9.75;;;;;;;;4954234;28;45529;-68
2023/05/26 05:27:15;;;;;;;;;9.25;9.00;;;;;;;;4958123;28;45389;-68
2023/05/26 05:29:40;;;;;;;;;10.75;9.25;;;;;;;;4958445;28;45382;-68
2023/05/26 05:32:05;;;;;;;;;11.50;10.00;;;;;;;;4957952;28;45357;-70
2023/05/26 05:34:31;;;;;;;;;10.75;8.00;;;;;;;;4958527;28;46110;-69
2023/05/26 05:36:56;;;;;;;;;11.75;9.50;;;;;;;;4958357;28;45254;-69
2023/05/26 05:39:21;;;;;;;;;12.50;9.25;;;;;;;;4958418;28;45306;-70
2023/05/26 05:41:46;;;;;;;;;10.25;9.00;;;;;;;;4959427;28;45267;-70
2023/05/26 05:44:11;;;;;;;;;10.75;9.25;;;;;;;;4975465;28;46007;-69
2023/05/26 05:46:37;;;;;;;;;8.00;8.00;;;;;;;;4977612;28;45473;-69
2023/05/26 05:49:02;;;;;;;;;15.25;11.75;;;;;;;;4967652;28;45238;-69
2023/05/26 05:51:27;;;;;;;;;11.50;11.50;;;;;;;;4975859;28;45318;-69
2023/05/26 05:53:52;;;;;;;;;10.25;9.25;;;;;;;;4977267;28;46275;-69
2023/05/26 05:56:18;;;;;;;;;13.00;10.00;;;;;;;;4972355;28;45503;-69
2023/05/26 05:58:43;;;;;;;;;11.25;9.25;;;;;;;;4973802;28;45486;-69
2023/05/26 06:01:08;;;;;;;;;10.50;8.50;;;;;;;;4976237;28;45627;-69
2023/05/26 06:03:33;;;;;;;;;9.75;9.00;;;;;;;;4976889;28;47238;-68
2023/05/26 06:05:58;;;;;;;;;13.00;12.50;;;;;;;;4977166;28;45361;-71
2023/05/26 06:08:24;;;;;;;;;13.50;10.00;;;;;;;;4972298;28;45521;-71
2023/05/26 06:10:49;;;;;;;;;13.00;10.00;;;;;;;;4957340;28;45526;-71
2023/05/26 06:13:14;;;;;;;;;8.50;7.75;;;;;;;;4957834;28;46179;-71
2023/05/26 06:15:39;;;;;;;;;15.50;10.25;;;;;;;;4957507;28;45459;-70
2023/05/26 06:18:04;;;;;;;;;15.00;11.00;;;;;;;;4958042;28;45454;-71
2023/05/26 06:20:30;;;;;;;;;12.00;9.00;;;;;;;;4957860;28;45382;-71
2023/05/26 06:22:55;;;;;;;;;11.50;10.00;;;;;;;;4957596;28;46563;-71
2023/05/26 06:25:20;;;;;;;;;14.25;11.50;;;;;;;;4957642;28;45422;-72
2023/05/26 06:27:45;;;;;;;;;8.50;8.00;;;;;;;;4957842;28;45369;-71
2023/05/26 06:30:11;;;;;;;;;9.00;8.75;;;;;;;;4957494;28;45436;-71
2023/05/26 06:32:36;;;;;;;;;11.25;10.00;;;;;;;;4955947;28;45525;-71
2023/05/26 06:35:01;;;;;;;;;13.50;13.00;;;;;;;;4956611;28;45379;-71
2023/05/26 06:37:26;;;;;;;;;10.50;10.50;;;;;;;;4955592;28;45342;-71
2023/05/26 06:39:51;;;;;;;;;17.50;11.25;;;;;;;;4955344;28;45592;-72
2023/05/26 06:42:17;;;;;;;;;9.50;8.00;;;;;;;;4956843;28;46331;-71
2023/05/26 06:44:42;;;;;;;;;16.25;10.00;;;;;;;;4954849;28;45407;-71
2023/05/26 06:47:07;;;;;;;;;9.75;9.75;;;;;;;;4955729;28;45393;-71
2023/05/26 06:49:33;;;;;;;;;14.25;12.75;;;;;;;;4962186;28;45410;-71
2023/05/26 06:51:58;;;;;;;;;9.50;8.50;;;;;;;;4995917;28;45754;-71
2023/05/26 06:54:23;;;;;;;;;14.25;10.25;;;;;;;;4995562;28;45377;-71
2023/05/26 06:56:48;;;;;;;;;10.25;7.75;;;;;;;;4980028;28;45545;-71
2023/05/26 06:59:13;;;;;;;;;14.50;9.50;;;;;;;;4976767;28;45354;-71
2023/05/26 07:01:39;;;;;;;;;11.75;10.25;;;;;;;;4976470;28;45483;-71
2023/05/26 07:04:04;;;;;;;;;9.25;9.25;;;;;;;;4975120;28;45357;-71
2023/05/26 07:06:29;;;;;;;;;17.00;14.25;;;;;;;;4976539;28;45225;-72
2023/05/26 07:08:54;;;;;;;;;9.25;9.25;;;;;;;;4975905;28;45315;-71
2023/05/26 07:11:21;;;;;;;;;16.75;14.75;;;;;;;;4976125;28;46289;-71
2023/05/26 07:13:46;;;;;;;;;13.00;11.75;;;;;;;;4975287;28;45934;-69
2023/05/26 07:16:11;;;;;;;;;14.25;12.25;;;;;;;;4975704;28;45334;-72
2023/05/26 07:18:36;;;;;;;;;10.00;10.00;;;;;;;;4975991;28;45305;-71
2023/05/26 07:21:02;;;;;;;;;18.00;13.25;;;;;;;;4963525;28;46359;-71
2023/05/26 07:23:27;;;;;;;;;12.50;11.50;;;;;;;;4956198;28;45312;-70
2023/05/26 07:25:52;;;;;;;;;15.00;12.00;;;;;;;;4956673;28;45153;-71
2023/05/26 07:28:17;;;;;;;;;12.25;10.50;;;;;;;;4956739;28;45441;-71
2023/05/26 07:30:43;;;;;;;;;11.00;11.00;;;;;;;;4956416;28;46411;-71
2023/05/26 07:33:08;;;;;;;;;14.00;10.75;;;;;;;;4956818;28;45356;-71
2023/05/26 07:35:33;;;;;;;;;12.50;11.50;;;;;;;;4956423;28;45382;-71
2023/05/26 07:37:59;;;;;;;;;14.75;13.50;;;;;;;;4956484;28;45451;-71
2023/05/26 07:40:24;;;;;;;;;12.25;12.25;;;;;;;;4956759;28;45350;-71
2023/05/26 07:42:49;;;;;;;;;15.00;12.00;;;;;;;;4956427;28;45437;-71
2023/05/26 07:45:15;;;;;;;;;11.25;10.50;;;;;;;;4956948;28;45400;-71
2023/05/26 07:47:40;;;;;;;;;14.50;12.50;;;;;;;;4956170;28;45415;-70
2023/05/26 07:50:06;;;;;;;;;10.75;8.75;;;;;;;;4963108;28;47759;-71
2023/05/26 07:52:31;;;;;;;;;13.00;11.00;;;;;;;;4975960;28;45763;-71
2023/05/26 07:54:58;;;;;;;;;12.50;11.25;;;;;;;;4976082;28;45413;-71
2023/05/26 07:57:23;;;;;;;;;10.75;9.50;;;;;;;;4970260;28;45325;-71
2023/05/26 07:59:48;;;;;;;;;15.00;11.75;;;;;;;;4955874;28;45590;-71
2023/05/26 08:02:13;;;;;;;;;15.50;13.75;;;;;;;;4956274;28;45591;-72
2023/05/26 08:04:38;;;;;;;;;14.50;10.00;;;;;;;;4963095;28;45477;-71
2023/05/26 08:07:05;;;;;;;;;12.75;11.00;;;;;;;;4975296;28;45492;-71
2023/05/26 08:09:30;;;;;;;;;11.75;11.25;;;;;;;;4975540;28;46023;-71
2023/05/26 08:11:55;;;;;;;;;10.00;10.00;;;;;;;;4975574;28;45419;-71
2023/05/26 08:14:22;;;;;;;;;12.75;11.50;;;;;;;;4975869;28;45402;-71
2023/05/26 08:16:47;;;;;;;;;15.75;10.75;;;;;;;;4975634;28;45368;-71
2023/05/26 08:19:13;;;;;;;;;8.25;7.25;;;;;;;;4975140;28;46038;-70
2023/05/26 08:21:38;;;;;;;;;13.00;11.00;;;;;;;;4974978;28;45531;-71
2023/05/26 08:24:03;;;;;;;;;13.25;10.00;;;;;;;;4975222;28;45393;-71
2023/05/26 08:26:28;;;;;;;;;12.75;11.00;;;;;;;;4975582;28;45568;-71
2023/05/26 08:28:53;;;;;;;;;15.00;11.50;;;;;;;;4975216;28;46459;-71
2023/05/26 08:31:19;;;;;;;;;9.75;9.00;;;;;;;;4975251;28;45503;-72
2023/05/26 08:33:44;;;;;;;;;12.00;10.75;;;;;;;;4975122;28;45461;-71
2023/05/26 08:36:10;;;;;;;;;12.00;11.00;;;;;;;;4973829;28;45306;-71
2023/05/26 08:38:35;;;;;;;;;12.50;12.00;;;;;;;;4975126;28;45849;-71
2023/05/26 08:41:00;;;;;;;;;12.00;11.50;;;;;;;;4973933;28;45449;-71
2023/05/26 08:43:33;;;;;;;;;9.75;6.75;;;;;;;;4975141;28;45413;-71
2023/05/26 08:46:01;;;;;;;;;11.75;11.50;;;;;;;;4975146;28;45438;-71
2023/05/26 08:48:26;;;;;;;;;8.75;8.75;;;;;;;;4974572;28;45992;-71
2023/05/26 08:50:54;;;;;;;;;10.25;9.25;;;;;;;;4974771;28;45429;-71
2023/05/26 08:53:20;;;;;;;;;7.25;7.25;;;;;;;;4975331;28;45394;-71
2023/05/26 08:55:45;;;;;;;;;8.75;8.75;;;;;;;;4975126;28;45420;-71
2023/05/26 08:58:11;;;;;;;;;10.50;9.25;;;;;;;;4973970;28;46252;-71
2023/05/26 09:00:39;;;;;;;;;15.75;13.50;;;;;;;;4976387;28;45432;-71
2023/05/26 09:03:04;;;;;;;;;11.75;11.00;;;;;;;;4978466;28;45396;-71
2023/05/26 09:05:30;;;;;;;;;11.75;10.75;;;;;;;;4977849;28;45539;-71
2023/05/26 09:07:55;;;;;;;;;15.50;14.75;;;;;;;;4973763;28;47078;-71
2023/05/26 09:10:24;;;;;;;;;10.75;10.50;;;;;;;;4965792;28;46055;-71
2023/05/26 09:13:00;;;;;;;;;12.75;10.00;;;;;;;;4971452;28;45356;-71
2023/05/26 09:15:26;;;;;;;;;14.75;11.25;;;;;;;;4977988;28;45428;-71
2023/05/26 09:17:51;;;;;;;;;9.50;7.75;;;;;;;;4958681;28;46134;-69
2023/05/26 09:20:16;;;;;;;;;10.75;8.25;;;;;;;;4958727;28;45306;-71
2023/05/26 09:22:43;;;;;;;;;9.75;8.50;;;;;;;;4958657;28;45352;-70
2023/05/26 09:25:09;;;;;;;;;11.25;9.75;;;;;;;;4967033;28;45488;-72
2023/05/26 09:27:34;;;;;;;;;7.75;7.75;;;;;;;;4977919;28;45745;-71
2023/05/26 09:30:02;;;;;;;;;8.25;7.00;;;;;;;;4977740;28;45393;-71
2023/05/26 09:32:28;;;;;;;;;11.25;10.00;;;;;;;;4977919;28;45393;-71
2023/05/26 09:34:58;;;;;;;;;9.25;9.25;;;;;;;;4976467;28;45388;-71
2023/05/26 09:37:28;;;;;;;;;4.75;4.75;;;;;;;;4977947;28;46421;-70
2023/05/26 09:39:53;;;;;;;;;11.50;8.25;;;;;;;;4977633;28;45464;-71
2023/05/26 09:42:18;;;;;;;;;9.75;9.50;;;;;;;;4977535;28;45381;-72
2023/05/26 09:44:47;;;;;;;;;13.75;9.00;;;;;;;;4977309;28;45370;-71
2023/05/26 09:47:18;;;;;;;;;12.25;10.50;;;;;;;;4977404;28;45440;-71
2023/05/26 09:49:43;;;;;;;;;10.00;8.00;;;;;;;;4981920;28;45765;-70
2023/05/26 09:52:09;;;;;;;;;12.00;9.00;;;;;;;;4997375;28;45243;-71
2023/05/26 09:54:34;;;;;;;;;7.25;7.25;;;;;;;;4997471;28;45226;-71
2023/05/26 09:57:00;;;;;;;;;8.00;7.00;;;;;;;;4975682;28;46320;-70
2023/05/26 09:59:29;;;;;;;;;8.75;8.75;;;;;;;;4958220;28;45677;-71
2023/05/26 10:01:55;;;;;;;;;5.75;5.75;;;;;;;;4958131;28;45477;-73
2023/05/26 10:04:20;;;;;;;;;9.25;9.25;;;;;;;;4958105;28;45504;-71
2023/05/26 10:06:48;;;;;;;;;5.75;5.25;;;;;;;;4957862;28;46011;-71
2023/05/26 10:09:14;;;;;;;;;7.00;7.00;;;;;;;;4956432;28;45497;-68
2023/05/26 10:11:41;;;;;;;;;12.25;11.25;;;;;;;;4957795;28;45455;-71
2023/05/26 10:14:06;;;;;;;;;12.00;9.75;;;;;;;;4957782;28;45437;-71
2023/05/26 10:16:32;;;;;;;;;10.00;10.00;;;;;;;;4967759;28;45385;-70
2023/05/26 10:18:58;;;;;;;;;9.00;9.00;;;;;;;;4977037;28;45460;-71
2023/05/26 10:21:24;;;;;;;;;5.25;5.25;;;;;;;;4976934;28;45354;-71
2023/05/26 10:23:53;;;;;;;;;11.25;11.00;;;;;;;;4976858;28;45495;-71
2023/05/26 10:26:18;;;;;;;;;7.50;7.50;;;;;;;;4976698;28;46251;-71
2023/05/26 10:28:46;;;;;;;;;10.00;10.00;;;;;;;;4976912;28;45365;-71
2023/05/26 10:31:26;;;;;;;;;8.25;7.25;;;;;;;;4977044;28;45418;-71
2023/05/26 10:33:52;;;;;;;;;11.25;7.75;;;;;;;;4976164;28;45500;-71
2023/05/26 10:36:17;;;;;;;;;11.25;8.25;;;;;;;;4956252;28;47398;-71
2023/05/26 10:38:44;;;;;;;;;8.50;8.50;;;;;;;;4975069;28;45481;-70
2023/05/26 10:41:14;;;;;;;;;9.50;8.25;;;;;;;;4968787;28;45448;-71
2023/05/26 10:43:39;;;;;;;;;10.75;8.50;;;;;;;;4968845;28;45420;-71
2023/05/26 10:46:05;;;;;;;;;11.00;11.00;;;;;;;;4960493;28;46064;-70
2023/05/26 10:48:34;;;;;;;;;11.00;8.00;;;;;;;;4972633;28;45509;-69
2023/05/26 10:50:59;;;;;;;;;7.75;7.50;;;;;;;;4958126;28;45736;-70
2023/05/26 10:53:27;;;;;;;;;10.50;8.00;;;;;;;;4976935;28;45503;-70
2023/05/26 10:55:55;;;;;;;;;8.00;8.00;;;;;;;;4976525;28;45393;-70
2023/05/26 10:58:26;;;;;;;;;15.50;9.75;;;;;;;;4976168;28;45570;-71
2023/05/26 11:00:57;;;;;;;;;10.00;8.25;;;;;;;;4965716;28;45400;-71
2023/05/26 11:03:36;;;;;;;;;9.00;9.00;;;;;;;;4957002;28;45370;-72
2023/05/26 11:06:01;;;;;;;;;10.75;9.50;;;;;;;;4956869;28;46539;-72
2023/05/26 11:08:32;;;;;;;;;8.75;8.00;;;;;;;;4956912;28;45390;-72
2023/05/26 11:10:57;;;;;;;;;8.00;7.00;;;;;;;;4957012;28;45491;-69
2023/05/26 11:13:41;;;;;;;;;10.50;9.50;;;;;;;;4971240;28;45604;-69
2023/05/26 11:16:16;;;;;;;;;9.25;7.75;;;;;;;;4968839;28;45511;-68
2023/05/26 11:18:49;;;;;;;;;8.00;8.00;;;;;;;;4965843;28;45374;-71
2023/05/26 11:21:14;;;;;;;;;11.25;10.25;;;;;;;;4956797;28;45533;-71
2023/05/26 11:23:40;;;;;;;;;9.50;7.75;;;;;;;;4955430;28;45424;-71
2023/05/26 11:26:09;;;;;;;;;7.75;5.50;;;;;;;;4956515;28;46251;-71
2023/05/26 11:28:39;;;;;;;;;11.00;9.00;;;;;;;;4956792;28;45220;-71
2023/05/26 11:31:11;;;;;;;;;10.00;9.25;;;;;;;;4956642;28;45405;-70
2023/05/26 11:33:36;;;;;;;;;8.50;8.50;;;;;;;;4956759;28;45259;-70
2023/05/26 11:36:05;;;;;;;;;9.00;8.00;;;;;;;;4956213;28;47564;-70
2023/05/26 11:38:31;;;;;;;;;7.75;6.50;;;;;;;;4956423;28;45469;-70
2023/05/26 11:40:56;;;;;;;;;11.75;10.00;;;;;;;;4956586;28;45501;-71
2023/05/26 11:43:24;;;;;;;;;9.25;9.00;;;;;;;;4956374;28;45492;-71
2023/05/26 11:45:52;;;;;;;;;9.00;8.50;;;;;;;;4956317;28;46613;-70
2023/05/26 11:48:18;;;;;;;;;7.25;6.25;;;;;;;;4954709;28;45430;-70
2023/05/26 11:50:43;;;;;;;;;8.75;7.50;;;;;;;;4980478;28;45310;-70
2023/05/26 11:53:08;;;;;;;;;9.25;9.25;;;;;;;;4969754;28;45382;-70
2023/05/26 11:55:33;;;;;;;;;6.75;6.50;;;;;;;;4956446;28;46369;-70
2023/05/26 11:57:58;;;;;;;;;8.00;7.50;;;;;;;;4956042;28;45612;-70
2023/05/26 12:00:24;;;;;;;;;11.75;8.25;;;;;;;;4956531;28;45402;-70
2023/05/26 12:02:49;;;;;;;;;8.50;8.50;;;;;;;;4955958;28;45493;-70
2023/05/26 12:05:28;;;;;;;;;11.75;9.50;;;;;;;;4955789;28;45444;-70
2023/05/26 12:08:07;;;;;;;;;12.75;9.75;;;;;;;;4955981;28;45497;-71
2023/05/26 12:10:33;;;;;;;;;8.50;8.50;;;;;;;;4956220;28;45334;-70
2023/05/26 12:12:58;;;;;;;;;9.25;8.50;;;;;;;;4955800;28;45330;-71
2023/05/26 12:15:24;;;;;;;;;7.00;7.00;;;;;;;;4955489;28;45781;-70
2023/05/26 12:17:53;;;;;;;;;9.00;8.25;;;;;;;;4975148;28;45671;-70
2023/05/26 12:20:19;;;;;;;;;10.00;8.00;;;;;;;;4974245;28;45390;-71
2023/05/26 12:22:44;;;;;;;;;8.00;7.00;;;;;;;;4975525;28;45405;-71
2023/05/26 12:25:10;;;;;;;;;11.00;7.75;;;;;;;;4973755;28;47611;-71
2023/05/26 12:27:36;;;;;;;;;6.25;6.25;;;;;;;;4974903;28;45363;-71
2023/05/26 12:30:15;;;;;;;;;9.00;9.00;;;;;;;;4974264;28;45346;-70
2023/05/26 12:32:40;;;;;;;;;11.75;10.00;;;;;;;;4975474;28;45507;-70
2023/05/26 12:35:06;;;;;;;;;6.75;6.00;;;;;;;;4969200;28;46482;-70
2023/05/26 12:37:31;;;;;;;;;8.75;8.75;;;;;;;;4974865;28;45494;-70
2023/05/26 12:39:56;;;;;;;;;8.75;7.25;;;;;;;;4975862;28;45463;-70
2023/05/26 12:42:21;;;;;;;;;8.75;7.00;;;;;;;;4961632;28;45386;-70
2023/05/26 12:44:46;;;;;;;;;11.50;9.50;;;;;;;;4959236;28;45514;-69
2023/05/26 12:47:12;;;;;;;;;6.75;6.75;;;;;;;;4959049;28;45443;-69
2023/05/26 12:49:37;;;;;;;;;7.50;6.00;;;;;;;;4964343;28;45607;-69
2023/05/26 12:52:02;;;;;;;;;7.00;5.75;;;;;;;;4981672;28;45413;-70
2023/05/26 12:54:27;;;;;;;;;6.00;5.50;;;;;;;;4978329;28;47225;-70
2023/05/26 12:56:53;;;;;;;;;6.00;6.00;;;;;;;;4976641;28;45483;-70
2023/05/26 12:59:18;;;;;;;;;7.00;7.00;;;;;;;;4978346;28;45444;-70
2023/05/26 13:01:43;;;;;;;;;8.00;7.00;;;;;;;;4978635;28;45592;-70
2023/05/26 13:04:08;;;;;;;;;10.00;8.50;;;;;;;;4977979;28;46306;-70
2023/05/26 13:06:33;;;;;;;;;12.25;8.25;;;;;;;;4978447;28;45577;-70
2023/05/26 13:08:58;;;;;;;;;8.50;5.75;;;;;;;;4978285;28;45470;-70
2023/05/26 13:11:24;;;;;;;;;6.50;6.50;;;;;;;;4978292;28;45269;-70
2023/05/26 13:13:50;;;;;;;;;7.00;6.00;;;;;;;;4978258;28;47155;-69
2023/05/26 13:16:15;;;;;;;;;10.50;9.25;;;;;;;;4970314;28;45400;-70
2023/05/26 13:18:40;;;;;;;;;11.25;9.25;;;;;;;;4957414;28;45461;-70
2023/05/26 13:21:06;;;;;;;;;7.75;6.00;;;;;;;;4958984;28;45437;-70
2023/05/26 13:23:33;;;;;;;;;7.00;6.00;;;;;;;;4958458;28;46069;-70
2023/05/26 13:25:58;;;;;;;;;7.50;7.25;;;;;;;;4958423;28;45341;-70
2023/05/26 13:28:25;;;;;;;;;7.75;6.25;;;;;;;;4941144;28;45606;-70
2023/05/26 13:30:50;;;;;;;;;7.00;7.00;;;;;;;;4957140;28;45564;-70
2023/05/26 13:33:15;;;;;;;;;6.50;5.00;;;;;;;;4958649;28;47289;-70
2023/05/26 13:35:41;;;;;;;;;7.50;6.00;;;;;;;;4958463;28;45331;-69
2023/05/26 13:38:06;;;;;;;;;10.00;7.00;;;;;;;;4958430;28;45412;-69
2023/05/26 13:40:32;;;;;;;;;7.25;5.75;;;;;;;;4958414;28;45386;-69
2023/05/26 13:42:57;;;;;;;;;7.25;6.25;;;;;;;;4958251;28;46240;-70
2023/05/26 13:45:23;;;;;;;;;6.50;5.50;;;;;;;;4958087;28;45422;-70
2023/05/26 13:47:48;;;;;;;;;7.50;7.25;;;;;;;;4957563;28;45485;-69
2023/05/26 13:50:13;;;;;;;;;8.75;6.75;;;;;;;;4975059;28;45506;-71
2023/05/26 13:52:39;;;;;;;;;5.75;5.75;;;;;;;;4997793;28;45479;-68
2023/05/26 13:55:04;;;;;;;;;8.00;5.50;;;;;;;;4997190;28;45240;-70
2023/05/26 13:57:30;;;;;;;;;7.00;6.25;;;;;;;;4997431;28;45423;-69
2023/05/26 13:59:56;;;;;;;;;7.25;6.00;;;;;;;;4991325;28;45257;-69
2023/05/26 14:02:21;;;;;;;;;7.00;7.00;;;;;;;;4956830;28;47105;-70
2023/05/26 14:04:46;;;;;;;;;8.00;5.75;;;;;;;;4958465;28;45494;-70
2023/05/26 14:07:11;;;;;;;;;5.00;4.25;;;;;;;;4958065;28;45608;-70
2023/05/26 14:09:37;;;;;;;;;9.00;8.00;;;;;;;;4957544;28;45421;-71
2023/05/26 14:12:02;;;;;;;;;7.25;5.50;;;;;;;;4976413;28;45596;-70
2023/05/26 14:14:27;;;;;;;;;9.25;8.25;;;;;;;;4977565;28;45374;-70
2023/05/26 14:16:53;;;;;;;;;7.25;6.75;;;;;;;;4976156;28;45460;-69
2023/05/26 14:19:18;;;;;;;;;8.50;7.25;;;;;;;;4977388;28;45480;-70
2023/05/26 14:21:43;;;;;;;;;6.00;6.00;;;;;;;;4977035;28;45429;-69
2023/05/26 14:24:10;;;;;;;;;7.25;6.75;;;;;;;;4973019;28;45381;-70
2023/05/26 14:26:36;;;;;;;;;7.00;7.00;;;;;;;;4957892;28;45421;-70